<?xml version="1.0" encoding="utf-8"?>
<gpx xmlns:xsi="http://www.w3.org/2001/XMLSchema-instance" xmlns:xsd="http://www.w3.org/2001/XMLSchema" version="1.1" creator="Shapelink.com" xmlns="http://www.topografix.com/GPX/1/1" xmlns:gpxtpx="http://www.garmin.com/xmlschemas/TrackPointExtension/v1">
  <metadata>
    <name>Cycling 10.10 km, 2020-07-30</name>
    <desc></desc>
    <author><name>Marian Moron</name></author> 
    <time>2020-07-30T19:01:14Z</time>
  </metadata>
  <trk>
    <name>Cycling 10.10 km, 2020-07-30</name>
    <trkseg>
      <trkpt lat="51.228778722392" lon="4.448758384725">
        <ele>0</ele>
        <time>2020-07-30T19:01:14Z</time>
      </trkpt>
      <trkpt lat="51.228774196166" lon="4.448823931183">
        <ele>0</ele>
        <time>2020-07-30T19:01:18Z</time>
      </trkpt>
      <trkpt lat="51.228746368258" lon="4.448835749662">
        <ele>0</ele>
        <time>2020-07-30T19:01:20Z</time>
      </trkpt>
      <trkpt lat="51.228972260463" lon="4.448417828128">
        <ele>0</ele>
        <time>2020-07-30T19:01:43Z</time>
      </trkpt>
      <trkpt lat="51.22863472135" lon="4.44773285926">
        <ele>0</ele>
        <time>2020-07-30T19:02:02Z</time>
      </trkpt>
      <trkpt lat="51.228225097897" lon="4.447214103469">
        <ele>0</ele>
        <time>2020-07-30T19:02:21Z</time>
      </trkpt>
      <trkpt lat="51.22783592628" lon="4.447820785391">
        <ele>0</ele>
        <time>2020-07-30T19:02:40Z</time>
      </trkpt>
      <trkpt lat="51.227429152673" lon="4.448410703513">
        <ele>0</ele>
        <time>2020-07-30T19:02:58Z</time>
      </trkpt>
      <trkpt lat="51.227090859189" lon="4.449093912182">
        <ele>0</ele>
        <time>2020-07-30T19:03:15Z</time>
      </trkpt>
      <trkpt lat="51.227012320786" lon="4.449308572641">
        <ele>0</ele>
        <time>2020-07-30T19:03:22Z</time>
      </trkpt>
      <trkpt lat="51.226995892262" lon="4.449332712513">
        <ele>0</ele>
        <time>2020-07-30T19:03:30Z</time>
      </trkpt>
      <trkpt lat="51.2269709142" lon="4.449354673091">
        <ele>0</ele>
        <time>2020-07-30T19:03:32Z</time>
      </trkpt>
      <trkpt lat="51.226829763004" lon="4.449328856839">
        <ele>0</ele>
        <time>2020-07-30T19:03:41Z</time>
      </trkpt>
      <trkpt lat="51.22657780309" lon="4.449485849826">
        <ele>0</ele>
        <time>2020-07-30T19:03:54Z</time>
      </trkpt>
      <trkpt lat="51.226572690131" lon="4.449449640018">
        <ele>0</ele>
        <time>2020-07-30T19:03:56Z</time>
      </trkpt>
      <trkpt lat="51.226277479613" lon="4.448854189842">
        <ele>0</ele>
        <time>2020-07-30T19:04:14Z</time>
      </trkpt>
      <trkpt lat="51.226230624792" lon="4.44887698861">
        <ele>0</ele>
        <time>2020-07-30T19:04:16Z</time>
      </trkpt>
      <trkpt lat="51.225886380159" lon="4.449572351034">
        <ele>0</ele>
        <time>2020-07-30T19:04:32Z</time>
      </trkpt>
      <trkpt lat="51.225355470613" lon="4.449707802538">
        <ele>0</ele>
        <time>2020-07-30T19:04:47Z</time>
      </trkpt>
      <trkpt lat="51.224854652088" lon="4.450106780978">
        <ele>0</ele>
        <time>2020-07-30T19:05:02Z</time>
      </trkpt>
      <trkpt lat="51.224819615746" lon="4.45015103741">
        <ele>0</ele>
        <time>2020-07-30T19:05:03Z</time>
      </trkpt>
      <trkpt lat="51.224424409161" lon="4.450775908055">
        <ele>0</ele>
        <time>2020-07-30T19:05:17Z</time>
      </trkpt>
      <trkpt lat="51.223998105727" lon="4.451340931934">
        <ele>0</ele>
        <time>2020-07-30T19:05:34Z</time>
      </trkpt>
      <trkpt lat="51.223444397413" lon="4.451234649442">
        <ele>0</ele>
        <time>2020-07-30T19:05:52Z</time>
      </trkpt>
      <trkpt lat="51.222900160646" lon="4.451064580691">
        <ele>0</ele>
        <time>2020-07-30T19:06:11Z</time>
      </trkpt>
      <trkpt lat="51.2223357235" lon="4.451109591494">
        <ele>0</ele>
        <time>2020-07-30T19:06:29Z</time>
      </trkpt>
      <trkpt lat="51.22182861855" lon="4.451428271332">
        <ele>0</ele>
        <time>2020-07-30T19:06:44Z</time>
      </trkpt>
      <trkpt lat="51.221292763683" lon="4.451655839917">
        <ele>0</ele>
        <time>2020-07-30T19:07:06Z</time>
      </trkpt>
      <trkpt lat="51.220724806139" lon="4.45178047877">
        <ele>0</ele>
        <time>2020-07-30T19:07:25Z</time>
      </trkpt>
      <trkpt lat="51.22016648778" lon="4.451918444844">
        <ele>0</ele>
        <time>2020-07-30T19:07:40Z</time>
      </trkpt>
      <trkpt lat="51.219615042579" lon="4.45199673179">
        <ele>0</ele>
        <time>2020-07-30T19:07:55Z</time>
      </trkpt>
      <trkpt lat="51.219109949285" lon="4.452094883839">
        <ele>0</ele>
        <time>2020-07-30T19:08:06Z</time>
      </trkpt>
      <trkpt lat="51.219030153597" lon="4.452037132548">
        <ele>0</ele>
        <time>2020-07-30T19:08:08Z</time>
      </trkpt>
      <trkpt lat="51.218881961605" lon="4.451817191492">
        <ele>0</ele>
        <time>2020-07-30T19:08:12Z</time>
      </trkpt>
      <trkpt lat="51.218488179943" lon="4.451685092748">
        <ele>0</ele>
        <time>2020-07-30T19:08:20Z</time>
      </trkpt>
      <trkpt lat="51.218402433106" lon="4.451746280618">
        <ele>0</ele>
        <time>2020-07-30T19:08:22Z</time>
      </trkpt>
      <trkpt lat="51.218192466511" lon="4.452531077915">
        <ele>0</ele>
        <time>2020-07-30T19:08:41Z</time>
      </trkpt>
      <trkpt lat="51.218153490676" lon="4.453225015416">
        <ele>0</ele>
        <time>2020-07-30T19:08:57Z</time>
      </trkpt>
      <trkpt lat="51.218248038508" lon="4.453384690611">
        <ele>0</ele>
        <time>2020-07-30T19:10:50Z</time>
      </trkpt>
      <trkpt lat="51.218178049643" lon="4.45424475737">
        <ele>0</ele>
        <time>2020-07-30T19:11:08Z</time>
      </trkpt>
      <trkpt lat="51.218114095746" lon="4.455085964854">
        <ele>0</ele>
        <time>2020-07-30T19:11:26Z</time>
      </trkpt>
      <trkpt lat="51.218116610316" lon="4.455256201243">
        <ele>0</ele>
        <time>2020-07-30T19:11:56Z</time>
      </trkpt>
      <trkpt lat="51.218049052202" lon="4.456130517232">
        <ele>0</ele>
        <time>2020-07-30T19:12:15Z</time>
      </trkpt>
      <trkpt lat="51.217994234576" lon="4.456975077476">
        <ele>0</ele>
        <time>2020-07-30T19:12:39Z</time>
      </trkpt>
      <trkpt lat="51.217883174401" lon="4.457866324903">
        <ele>0</ele>
        <time>2020-07-30T19:13:01Z</time>
      </trkpt>
      <trkpt lat="51.217859285986" lon="4.458760589814">
        <ele>0</ele>
        <time>2020-07-30T19:13:17Z</time>
      </trkpt>
      <trkpt lat="51.21784051053" lon="4.459670696516">
        <ele>4.6</ele>
        <time>2020-07-30T19:13:34Z</time>
      </trkpt>
      <trkpt lat="51.21776591162" lon="4.460530260361">
        <ele>1.8</ele>
        <time>2020-07-30T19:13:50Z</time>
      </trkpt>
      <trkpt lat="51.217761301575" lon="4.461164937829">
        <ele>0</ele>
        <time>2020-07-30T19:14:06Z</time>
      </trkpt>
      <trkpt lat="51.217838498874" lon="4.4615847872">
        <ele>0</ele>
        <time>2020-07-30T19:14:16Z</time>
      </trkpt>
      <trkpt lat="51.217831541897" lon="4.461716215392">
        <ele>0</ele>
        <time>2020-07-30T19:15:38Z</time>
      </trkpt>
      <trkpt lat="51.217795918822" lon="4.462573599943">
        <ele>0</ele>
        <time>2020-07-30T19:15:56Z</time>
      </trkpt>
      <trkpt lat="51.217746381793" lon="4.46346484737">
        <ele>0</ele>
        <time>2020-07-30T19:16:13Z</time>
      </trkpt>
      <trkpt lat="51.217659796766" lon="4.464343941042">
        <ele>0</ele>
        <time>2020-07-30T19:16:29Z</time>
      </trkpt>
      <trkpt lat="51.217560890346" lon="4.465208198751">
        <ele>0</ele>
        <time>2020-07-30T19:16:45Z</time>
      </trkpt>
      <trkpt lat="51.217469359998" lon="4.466065583302">
        <ele>0</ele>
        <time>2020-07-30T19:17:00Z</time>
      </trkpt>
      <trkpt lat="51.217442035004" lon="4.466362889295">
        <ele>0</ele>
        <time>2020-07-30T19:17:05Z</time>
      </trkpt>
      <trkpt lat="51.217777897737" lon="4.467051713837">
        <ele>15.2</ele>
        <time>2020-07-30T19:22:19Z</time>
      </trkpt>
      <trkpt lat="51.217506743272" lon="4.467795691281">
        <ele>15.4</ele>
        <time>2020-07-30T19:22:46Z</time>
      </trkpt>
      <trkpt lat="51.217456870967" lon="4.468376221675">
        <ele>12.8</ele>
        <time>2020-07-30T19:23:02Z</time>
      </trkpt>
      <trkpt lat="51.217068034626" lon="4.467816394574">
        <ele>5.2</ele>
        <time>2020-07-30T19:23:26Z</time>
      </trkpt>
      <trkpt lat="51.216703254338" lon="4.467173335206">
        <ele>0</ele>
        <time>2020-07-30T19:23:51Z</time>
      </trkpt>
      <trkpt lat="51.216277621456" lon="4.466621219453">
        <ele>0</ele>
        <time>2020-07-30T19:24:11Z</time>
      </trkpt>
      <trkpt lat="51.215861460121" lon="4.46604898714">
        <ele>0</ele>
        <time>2020-07-30T19:24:29Z</time>
      </trkpt>
      <trkpt lat="51.215470863581" lon="4.466209835801">
        <ele>0</ele>
        <time>2020-07-30T19:24:48Z</time>
      </trkpt>
      <trkpt lat="51.215448903003" lon="4.466194245467">
        <ele>0</ele>
        <time>2020-07-30T19:25:47Z</time>
      </trkpt>
      <trkpt lat="51.215444628234" lon="4.466207907964">
        <ele>0</ele>
        <time>2020-07-30T19:25:48Z</time>
      </trkpt>
      <trkpt lat="51.215204905894" lon="4.466968816846">
        <ele>0</ele>
        <time>2020-07-30T19:26:16Z</time>
      </trkpt>
      <trkpt lat="51.214711128165" lon="4.467015252572">
        <ele>0</ele>
        <time>2020-07-30T19:26:37Z</time>
      </trkpt>
      <trkpt lat="51.214264624352" lon="4.466482247551">
        <ele>0</ele>
        <time>2020-07-30T19:26:54Z</time>
      </trkpt>
      <trkpt lat="51.213760955981" lon="4.466133141416">
        <ele>0</ele>
        <time>2020-07-30T19:27:12Z</time>
      </trkpt>
      <trkpt lat="51.213622067898" lon="4.465989559469">
        <ele>0</ele>
        <time>2020-07-30T19:27:18Z</time>
      </trkpt>
      <trkpt lat="51.213457028287" lon="4.466149486121">
        <ele>0</ele>
        <time>2020-07-30T19:27:26Z</time>
      </trkpt>
      <trkpt lat="51.213381842644" lon="4.466131632674">
        <ele>0</ele>
        <time>2020-07-30T19:28:20Z</time>
      </trkpt>
      <trkpt lat="51.213337418574" lon="4.465492009885">
        <ele>0</ele>
        <time>2020-07-30T19:28:35Z</time>
      </trkpt>
      <trkpt lat="51.213294922341" lon="4.465423110667">
        <ele>0</ele>
        <time>2020-07-30T19:28:37Z</time>
      </trkpt>
      <trkpt lat="51.21276694646" lon="4.46513536004">
        <ele>0</ele>
        <time>2020-07-30T19:29:02Z</time>
      </trkpt>
      <trkpt lat="51.212231426869" lon="4.465362760987">
        <ele>0</ele>
        <time>2020-07-30T19:29:27Z</time>
      </trkpt>
      <trkpt lat="51.211717448761" lon="4.465533248833">
        <ele>0</ele>
        <time>2020-07-30T19:29:47Z</time>
      </trkpt>
      <trkpt lat="51.21158426037" lon="4.465781269254">
        <ele>0</ele>
        <time>2020-07-30T19:29:54Z</time>
      </trkpt>
      <trkpt lat="51.211429362858" lon="4.464982893279">
        <ele>0</ele>
        <time>2020-07-30T19:30:16Z</time>
      </trkpt>
      <trkpt lat="51.211642179299" lon="4.464203125122">
        <ele>0</ele>
        <time>2020-07-30T19:30:38Z</time>
      </trkpt>
      <trkpt lat="51.211678472926" lon="4.464105140711">
        <ele>0</ele>
        <time>2020-07-30T19:30:48Z</time>
      </trkpt>
      <trkpt lat="51.211960104766" lon="4.463375412497">
        <ele>0</ele>
        <time>2020-07-30T19:31:21Z</time>
      </trkpt>
      <trkpt lat="51.212298314431" lon="4.462688348154">
        <ele>0</ele>
        <time>2020-07-30T19:31:45Z</time>
      </trkpt>
      <trkpt lat="51.212674494103" lon="4.462031291013">
        <ele>0</ele>
        <time>2020-07-30T19:32:09Z</time>
      </trkpt>
      <trkpt lat="51.213092750913" lon="4.461459980709">
        <ele>0</ele>
        <time>2020-07-30T19:32:34Z</time>
      </trkpt>
      <trkpt lat="51.213542942762" lon="4.460954971234">
        <ele>0</ele>
        <time>2020-07-30T19:32:56Z</time>
      </trkpt>
      <trkpt lat="51.214022471261" lon="4.460488183223">
        <ele>0</ele>
        <time>2020-07-30T19:33:19Z</time>
      </trkpt>
      <trkpt lat="51.214261523049" lon="4.459830623168">
        <ele>0</ele>
        <time>2020-07-30T19:33:39Z</time>
      </trkpt>
      <trkpt lat="51.214033870645" lon="4.459038533618">
        <ele>0</ele>
        <time>2020-07-30T19:33:58Z</time>
      </trkpt>
      <trkpt lat="51.213943094668" lon="4.45819766141">
        <ele>0</ele>
        <time>2020-07-30T19:34:18Z</time>
      </trkpt>
      <trkpt lat="51.2136688389" lon="4.457886106187">
        <ele>0</ele>
        <time>2020-07-30T19:34:34Z</time>
      </trkpt>
      <trkpt lat="51.213590384316" lon="4.457720060748">
        <ele>0</ele>
        <time>2020-07-30T19:41:34Z</time>
      </trkpt>
      <trkpt lat="51.213364156835" lon="4.457083036348">
        <ele>0</ele>
        <time>2020-07-30T19:41:55Z</time>
      </trkpt>
      <trkpt lat="51.213388212888" lon="4.457081779063">
        <ele>0</ele>
        <time>2020-07-30T19:42:52Z</time>
      </trkpt>
      <trkpt lat="51.212904661077" lon="4.45666880285">
        <ele>0</ele>
        <time>2020-07-30T19:43:12Z</time>
      </trkpt>
      <trkpt lat="51.212405602751" lon="4.456311398634">
        <ele>5.2</ele>
        <time>2020-07-30T19:43:28Z</time>
      </trkpt>
      <trkpt lat="51.211918781999" lon="4.455869001952">
        <ele>9</ele>
        <time>2020-07-30T19:43:45Z</time>
      </trkpt>
      <trkpt lat="51.211592977546" lon="4.455207670042">
        <ele>6.4</ele>
        <time>2020-07-30T19:44:04Z</time>
      </trkpt>
      <trkpt lat="51.21134202346" lon="4.454441229106">
        <ele>4.2</ele>
        <time>2020-07-30T19:44:21Z</time>
      </trkpt>
      <trkpt lat="51.21110565388" lon="4.453667747374">
        <ele>3</ele>
        <time>2020-07-30T19:44:41Z</time>
      </trkpt>
      <trkpt lat="51.21106039162" lon="4.453258878292">
        <ele>3.4</ele>
        <time>2020-07-30T19:44:51Z</time>
      </trkpt>
      <trkpt lat="51.211606304767" lon="4.453211604376">
        <ele>1.2</ele>
        <time>2020-07-30T19:45:07Z</time>
      </trkpt>
      <trkpt lat="51.212162276194" lon="4.453145219728">
        <ele>6.8</ele>
        <time>2020-07-30T19:45:24Z</time>
      </trkpt>
      <trkpt lat="51.212729395548" lon="4.453166258297">
        <ele>13.4</ele>
        <time>2020-07-30T19:45:40Z</time>
      </trkpt>
      <trkpt lat="51.213266172424" lon="4.453122504779">
        <ele>8.2</ele>
        <time>2020-07-30T19:45:57Z</time>
      </trkpt>
      <trkpt lat="51.213540847287" lon="4.452797706154">
        <ele>1</ele>
        <time>2020-07-30T19:46:09Z</time>
      </trkpt>
      <trkpt lat="51.213511091542" lon="4.453689624133">
        <ele>0</ele>
        <time>2020-07-30T19:46:27Z</time>
      </trkpt>
      <trkpt lat="51.213436157356" lon="4.454996781438">
        <ele>0</ele>
        <time>2020-07-30T19:46:58Z</time>
      </trkpt>
      <trkpt lat="51.213486281118" lon="4.455894902023">
        <ele>0</ele>
        <time>2020-07-30T19:47:24Z</time>
      </trkpt>
      <trkpt lat="51.213485107652" lon="4.456799141395">
        <ele>0</ele>
        <time>2020-07-30T19:47:47Z</time>
      </trkpt>
      <trkpt lat="51.213476725752" lon="4.456967449947">
        <ele>0</ele>
        <time>2020-07-30T19:47:52Z</time>
      </trkpt>
      <trkpt lat="51.21307959133" lon="4.457521912632">
        <ele>0</ele>
        <time>2020-07-30T19:48:17Z</time>
      </trkpt>
      <trkpt lat="51.212789996685" lon="4.458278630564">
        <ele>7</ele>
        <time>2020-07-30T19:48:43Z</time>
      </trkpt>
      <trkpt lat="51.212544742291" lon="4.458771570103">
        <ele>2</ele>
        <time>2020-07-30T19:48:58Z</time>
      </trkpt>
      <trkpt lat="51.212767533193" lon="4.459539352143">
        <ele>0</ele>
        <time>2020-07-30T19:49:20Z</time>
      </trkpt>
      <trkpt lat="51.212738531819" lon="4.459594169769">
        <ele>0</ele>
        <time>2020-07-30T19:49:22Z</time>
      </trkpt>
      <trkpt lat="51.212282221183" lon="4.460066322196">
        <ele>0</ele>
        <time>2020-07-30T19:49:49Z</time>
      </trkpt>
      <trkpt lat="51.211886427865" lon="4.460657665241">
        <ele>0</ele>
        <time>2020-07-30T19:50:12Z</time>
      </trkpt>
      <trkpt lat="51.211845188917" lon="4.460809042355">
        <ele>0</ele>
        <time>2020-07-30T19:50:19Z</time>
      </trkpt>
      <trkpt lat="51.212134029191" lon="4.460806863061">
        <ele>37.2</ele>
        <time>2020-07-30T19:51:43Z</time>
      </trkpt>
      <trkpt lat="51.21223385762" lon="4.46065355811">
        <ele>25.6</ele>
        <time>2020-07-30T19:52:02Z</time>
      </trkpt>
      <trkpt lat="51.212190607016" lon="4.460570996395">
        <ele>15.6</ele>
        <time>2020-07-30T19:52:04Z</time>
      </trkpt>
      <trkpt lat="51.212210807395" lon="4.460516681683">
        <ele>13.8</ele>
        <time>2020-07-30T19:52:06Z</time>
      </trkpt>
      <trkpt lat="51.212630237671" lon="4.459938079126">
        <ele>16.2</ele>
        <time>2020-07-30T19:52:29Z</time>
      </trkpt>
      <trkpt lat="51.212858644446" lon="4.459681844443">
        <ele>7</ele>
        <time>2020-07-30T19:53:01Z</time>
      </trkpt>
      <trkpt lat="51.213361893722" lon="4.459327709168">
        <ele>7.4</ele>
        <time>2020-07-30T19:53:29Z</time>
      </trkpt>
      <trkpt lat="51.213816779435" lon="4.458849689411">
        <ele>13.4</ele>
        <time>2020-07-30T19:53:50Z</time>
      </trkpt>
      <trkpt lat="51.214028673867" lon="4.458727816585">
        <ele>17.2</ele>
        <time>2020-07-30T19:54:00Z</time>
      </trkpt>
      <trkpt lat="51.21406530277" lon="4.458784310591">
        <ele>18.6</ele>
        <time>2020-07-30T19:54:02Z</time>
      </trkpt>
      <trkpt lat="51.214396471639" lon="4.459471291115">
        <ele>17.4</ele>
        <time>2020-07-30T19:54:24Z</time>
      </trkpt>
      <trkpt lat="51.214417761665" lon="4.459664913005">
        <ele>17.2</ele>
        <time>2020-07-30T19:54:29Z</time>
      </trkpt>
      <trkpt lat="51.214606605872" lon="4.460481561522">
        <ele>0</ele>
        <time>2020-07-30T19:54:51Z</time>
      </trkpt>
      <trkpt lat="51.214934002886" lon="4.46120592532">
        <ele>0</ele>
        <time>2020-07-30T19:55:12Z</time>
      </trkpt>
      <trkpt lat="51.21524882705" lon="4.461956021551">
        <ele>0</ele>
        <time>2020-07-30T19:55:30Z</time>
      </trkpt>
      <trkpt lat="51.21565032006" lon="4.462329519015">
        <ele>0</ele>
        <time>2020-07-30T19:55:48Z</time>
      </trkpt>
      <trkpt lat="51.216014681253" lon="4.461685286181">
        <ele>0</ele>
        <time>2020-07-30T19:56:07Z</time>
      </trkpt>
      <trkpt lat="51.216038653487" lon="4.461616219325">
        <ele>0</ele>
        <time>2020-07-30T19:56:10Z</time>
      </trkpt>
      <trkpt lat="51.216083329014" lon="4.461178097412">
        <ele>0</ele>
        <time>2020-07-30T19:57:10Z</time>
      </trkpt>
      <trkpt lat="51.216461520342" lon="4.460546018333">
        <ele>0</ele>
        <time>2020-07-30T19:57:39Z</time>
      </trkpt>
      <trkpt lat="51.216470405156" lon="4.460530595637">
        <ele>0</ele>
        <time>2020-07-30T19:57:40Z</time>
      </trkpt>
      <trkpt lat="51.216477529771" lon="4.460363125275">
        <ele>0</ele>
        <time>2020-07-30T19:58:27Z</time>
      </trkpt>
      <trkpt lat="51.216505609136" lon="4.460328591847">
        <ele>0</ele>
        <time>2020-07-30T19:58:29Z</time>
      </trkpt>
      <trkpt lat="51.216877178763" lon="4.459697937691">
        <ele>0</ele>
        <time>2020-07-30T19:58:56Z</time>
      </trkpt>
      <trkpt lat="51.216902911196" lon="4.459622332953">
        <ele>0</ele>
        <time>2020-07-30T19:58:59Z</time>
      </trkpt>
      <trkpt lat="51.216925123231" lon="4.459573634114">
        <ele>0</ele>
        <time>2020-07-30T19:59:47Z</time>
      </trkpt>
      <trkpt lat="51.217280096696" lon="4.458905596684">
        <ele>0</ele>
        <time>2020-07-30T20:00:19Z</time>
      </trkpt>
      <trkpt lat="51.217670777055" lon="4.458254825968">
        <ele>0</ele>
        <time>2020-07-30T20:00:41Z</time>
      </trkpt>
      <trkpt lat="51.218032539859" lon="4.45759667918">
        <ele>0</ele>
        <time>2020-07-30T20:01:03Z</time>
      </trkpt>
      <trkpt lat="51.218144857319" lon="4.456738959353">
        <ele>0</ele>
        <time>2020-07-30T20:01:24Z</time>
      </trkpt>
      <trkpt lat="51.218175199797" lon="4.455864475726">
        <ele>0</ele>
        <time>2020-07-30T20:01:49Z</time>
      </trkpt>
      <trkpt lat="51.218207805388" lon="4.454983118941">
        <ele>0</ele>
        <time>2020-07-30T20:02:09Z</time>
      </trkpt>
      <trkpt lat="51.218240494798" lon="4.454092374428">
        <ele>0</ele>
        <time>2020-07-30T20:02:32Z</time>
      </trkpt>
      <trkpt lat="51.218304281057" lon="4.453218896629">
        <ele>0</ele>
        <time>2020-07-30T20:02:50Z</time>
      </trkpt>
      <trkpt lat="51.21835180643" lon="4.452339216224">
        <ele>0</ele>
        <time>2020-07-30T20:03:10Z</time>
      </trkpt>
      <trkpt lat="51.218322050685" lon="4.452100332074">
        <ele>0</ele>
        <time>2020-07-30T20:03:21Z</time>
      </trkpt>
      <trkpt lat="51.218279470633" lon="4.45224399784">
        <ele>0</ele>
        <time>2020-07-30T20:03:34Z</time>
      </trkpt>
      <trkpt lat="51.21854375194" lon="4.451790034136">
        <ele>0</ele>
        <time>2020-07-30T20:03:50Z</time>
      </trkpt>
      <trkpt lat="51.218753718535" lon="4.451824986659">
        <ele>0</ele>
        <time>2020-07-30T20:03:54Z</time>
      </trkpt>
      <trkpt lat="51.219275240353" lon="4.452090692889">
        <ele>0</ele>
        <time>2020-07-30T20:04:14Z</time>
      </trkpt>
      <trkpt lat="51.219816291998" lon="4.451967143683">
        <ele>0</ele>
        <time>2020-07-30T20:04:38Z</time>
      </trkpt>
      <trkpt lat="51.220367569561" lon="4.451943842001">
        <ele>0</ele>
        <time>2020-07-30T20:04:56Z</time>
      </trkpt>
      <trkpt lat="51.220921110237" lon="4.451792045792">
        <ele>0</ele>
        <time>2020-07-30T20:05:13Z</time>
      </trkpt>
      <trkpt lat="51.221477584578" lon="4.45161200258">
        <ele>0</ele>
        <time>2020-07-30T20:05:30Z</time>
      </trkpt>
      <trkpt lat="51.222013942359" lon="4.451306147049">
        <ele>0</ele>
        <time>2020-07-30T20:05:44Z</time>
      </trkpt>
      <trkpt lat="51.222410238591" lon="4.451146388035">
        <ele>0</ele>
        <time>2020-07-30T20:05:53Z</time>
      </trkpt>
      <trkpt lat="51.222976771212" lon="4.45107807555">
        <ele>0</ele>
        <time>2020-07-30T20:06:07Z</time>
      </trkpt>
      <trkpt lat="51.223515559744" lon="4.451270775431">
        <ele>0</ele>
        <time>2020-07-30T20:06:23Z</time>
      </trkpt>
      <trkpt lat="51.224054348276" lon="4.451313271664">
        <ele>0</ele>
        <time>2020-07-30T20:06:39Z</time>
      </trkpt>
      <trkpt lat="51.224481992814" lon="4.450774818408">
        <ele>0</ele>
        <time>2020-07-30T20:06:55Z</time>
      </trkpt>
      <trkpt lat="51.224886754765" lon="4.450182720992">
        <ele>0</ele>
        <time>2020-07-30T20:07:10Z</time>
      </trkpt>
      <trkpt lat="51.22534817836" lon="4.449732193867">
        <ele>0</ele>
        <time>2020-07-30T20:07:28Z</time>
      </trkpt>
      <trkpt lat="51.225885290512" lon="4.449632784533">
        <ele>0</ele>
        <time>2020-07-30T20:07:43Z</time>
      </trkpt>
      <trkpt lat="51.226273623939" lon="4.448992491192">
        <ele>0</ele>
        <time>2020-07-30T20:08:00Z</time>
      </trkpt>
      <trkpt lat="51.226508820053" lon="4.448204424954">
        <ele>0</ele>
        <time>2020-07-30T20:08:15Z</time>
      </trkpt>
      <trkpt lat="51.226911905624" lon="4.447636215953">
        <ele>0</ele>
        <time>2020-07-30T20:08:29Z</time>
      </trkpt>
      <trkpt lat="51.227350278994" lon="4.447072784635">
        <ele>0</ele>
        <time>2020-07-30T20:08:44Z</time>
      </trkpt>
      <trkpt lat="51.22775210728" lon="4.446460989754">
        <ele>0</ele>
        <time>2020-07-30T20:08:59Z</time>
      </trkpt>
      <trkpt lat="51.228157707421" lon="4.445883141568">
        <ele>0</ele>
        <time>2020-07-30T20:09:14Z</time>
      </trkpt>
      <trkpt lat="51.228459623459" lon="4.445121310677">
        <ele>0</ele>
        <time>2020-07-30T20:09:29Z</time>
      </trkpt>
      <trkpt lat="51.228802946083" lon="4.444439946026">
        <ele>0</ele>
        <time>2020-07-30T20:09:45Z</time>
      </trkpt>
      <trkpt lat="51.229269566456" lon="4.443913814163">
        <ele>0</ele>
        <time>2020-07-30T20:10:01Z</time>
      </trkpt>
      <trkpt lat="51.22947039678" lon="4.443838963796">
        <ele>0</ele>
        <time>2020-07-30T20:10:07Z</time>
      </trkpt>
      <trkpt lat="51.229710873491" lon="4.444620408333">
        <ele>0.6</ele>
        <time>2020-07-30T20:10:22Z</time>
      </trkpt>
      <trkpt lat="51.229944309406" lon="4.445411659693">
        <ele>0</ele>
        <time>2020-07-30T20:10:44Z</time>
      </trkpt>
      <trkpt lat="51.230169866335" lon="4.446195786438">
        <ele>0</ele>
        <time>2020-07-30T20:11:01Z</time>
      </trkpt>
      <trkpt lat="51.23039994949" lon="4.446993659499">
        <ele>0</ele>
        <time>2020-07-30T20:11:19Z</time>
      </trkpt>
      <trkpt lat="51.230620225822" lon="4.447785916687">
        <ele>0</ele>
        <time>2020-07-30T20:11:35Z</time>
      </trkpt>
      <trkpt lat="51.230828767494" lon="4.448596697874">
        <ele>0</ele>
        <time>2020-07-30T20:11:52Z</time>
      </trkpt>
      <trkpt lat="51.231039656098" lon="4.449441425756">
        <ele>0</ele>
        <time>2020-07-30T20:12:08Z</time>
      </trkpt>
      <trkpt lat="51.231223554984" lon="4.450275760082">
        <ele>5.8</ele>
        <time>2020-07-30T20:12:24Z</time>
      </trkpt>
      <trkpt lat="51.231178628" lon="4.450426299006">
        <ele>4.4</ele>
        <time>2020-07-30T20:12:28Z</time>
      </trkpt>
      <trkpt lat="51.230628356265" lon="4.450551105497">
        <ele>0</ele>
        <time>2020-07-30T20:12:47Z</time>
      </trkpt>
      <trkpt lat="51.230080180005" lon="4.450821757048">
        <ele>0</ele>
        <time>2020-07-30T20:13:05Z</time>
      </trkpt>
      <trkpt lat="51.229671310923" lon="4.450905492229">
        <ele>0</ele>
        <time>2020-07-30T20:13:20Z</time>
      </trkpt>
      <trkpt lat="51.229553880504" lon="4.450050873705">
        <ele>0</ele>
        <time>2020-07-30T20:13:37Z</time>
      </trkpt>
      <trkpt lat="51.229407197254" lon="4.44920807366">
        <ele>0</ele>
        <time>2020-07-30T20:13:55Z</time>
      </trkpt>
      <trkpt lat="51.229112405831" lon="4.448528720665">
        <ele>0</ele>
        <time>2020-07-30T20:14:15Z</time>
      </trkpt>
      <trkpt lat="51.228736393797" lon="4.447878201406">
        <ele>0</ele>
        <time>2020-07-30T20:14:33Z</time>
      </trkpt>
      <trkpt lat="51.228705296948" lon="4.447890858075">
        <ele>0</ele>
        <time>2020-07-30T20:14:35Z</time>
      </trkpt>
      <trkpt lat="51.228350072026" lon="4.448596781693">
        <ele>0</ele>
        <time>2020-07-30T20:14:59Z</time>
      </trkpt>
      <trkpt lat="51.227953356699" lon="4.449181586856">
        <ele>0</ele>
        <time>2020-07-30T20:15:17Z</time>
      </trkpt>
      <trkpt lat="51.227491849285" lon="4.449662959373">
        <ele>0</ele>
        <time>2020-07-30T20:15:36Z</time>
      </trkpt>
      <trkpt lat="51.227289342581" lon="4.449890779415">
        <ele>0</ele>
        <time>2020-07-30T20:15:58Z</time>
      </trkpt>
      <trkpt lat="51.227044507282" lon="4.449981387754">
        <ele>0</ele>
        <time>2020-07-30T20:16:08Z</time>
      </trkpt>
      <trkpt lat="51.227071916095" lon="4.449122829737">
        <ele>6.2</ele>
        <time>2020-07-30T20:16:29Z</time>
      </trkpt>
      <trkpt lat="51.227468547603" lon="4.448524864991">
        <ele>0</ele>
        <time>2020-07-30T20:16:47Z</time>
      </trkpt>
      <trkpt lat="51.227880434169" lon="4.44792145201">
        <ele>0</ele>
        <time>2020-07-30T20:17:04Z</time>
      </trkpt>
      <trkpt lat="51.228301540825" lon="4.447364642393">
        <ele>0</ele>
        <time>2020-07-30T20:17:22Z</time>
      </trkpt>
      <trkpt lat="51.228705464586" lon="4.447691536493">
        <ele>0</ele>
        <time>2020-07-30T20:17:42Z</time>
      </trkpt>
      <trkpt lat="51.229059180766" lon="4.448518327109">
        <ele>0</ele>
        <time>2020-07-30T20:18:20Z</time>
      </trkpt>
      <trkpt lat="51.228655340824" lon="4.449082093703">
        <ele>0</ele>
        <time>2020-07-30T20:18:37Z</time>
      </trkpt>
      <trkpt lat="51.228552494911" lon="4.449296251248">
        <ele>0</ele>
        <time>2020-07-30T20:19:04Z</time>
      </trkpt>
    </trkseg>
  </trk>
</gpx>